Weather reports worldwide

Advertisment
Bala, United Kingdom (3409): temperature & dewpoint: 19.09.2017 10:00:00 - 25.09.2017 10:00:00 (BST)Bala, United Kingdom (3409): temperature -20cm & temperature -100cm: 19.09.2017 10:00:00 - 25.09.2017 10:00:00 (BST)Bala, United Kingdom (3409): wind speed: 19.09.2017 10:00:00 - 25.09.2017 10:00:00 (BST)Bala, United Kingdom (3409): wind direction: 19.09.2017 10:00:00 - 25.09.2017 10:00:00 (BST)Bala, United Kingdom (3409): reduced air pressure: 19.09.2017 10:00:00 - 25.09.2017 10:00:00 (BST)Bala, United Kingdom (3409): sunshine duration: 19.09.2017 10:00:00 - 25.09.2017 10:00:00 (BST)Bala, United Kingdom (3409): precipitation: 19.09.2017 10:00:00 - 25.09.2017 10:00:00 (BST)
Date & Time tt [°C] td [°C] tt -20cm [°C] tt -100cm [°C] ff [km/h] ff [kn] dd ppp [hPa] sd [min] rr [mm]
25.09.2017 10:00:00 13,0 12,8 14,2 14,2 2 1 SSW 1020,9 0 0,0
25.09.2017 09:00:00 12,3 12,1 - - 2 1 ESE 1020,7 0 0,0
25.09.2017 08:00:00 11,5 11,4 - - 2 1 WNW 1020,3 0 0,0
25.09.2017 07:00:00 12,3 12,1 - - 0 0 N 1019,4 0 0,0
25.09.2017 06:00:00 13,0 12,8 - - 0 0 N 1018,9 0 0,0
25.09.2017 05:00:00 13,3 13,2 - - 0 0 N 1018,9 0 0,0
25.09.2017 04:00:00 13,4 13,3 - - 0 0 N 1018,5 0 0,2
25.09.2017 03:00:00 13,6 13,4 - - 2 1 ESE 1018,6 0 0,0
25.09.2017 02:00:00 13,7 13,5 - - 0 0 N 1018,6 0 0,0
25.09.2017 01:00:00 13,9 13,7 - - 2 1 S 1018,5 - 0,0
25.09.2017 00:00:00 14,0 13,8 - - 2 1 NNE 1018,5 0 0,0
24.09.2017 23:00:00 14,0 13,8 - - 0 0 N 1018,4 0 0,0
24.09.2017 22:00:00 14,1 13,9 - - 0 0 N 1018,2 0 0,2
24.09.2017 21:00:00 14,3 14,0 - - 0 0 N 1018,0 0 0,2
24.09.2017 20:00:00 14,4 14,0 - - 0 0 N 1017,8 0 2,2
24.09.2017 19:00:00 14,7 14,0 - - 4 2 NE 1017,5 0 1,6
24.09.2017 18:00:00 15,5 13,5 - - 4 2 N 1017,1 0 0,2
24.09.2017 17:00:00 16,8 12,7 - - 8 4 SE 1016,7 0 0,0
24.09.2017 16:00:00 16,8 12,7 - - 4 2 SE 1016,7 0 0,0
24.09.2017 15:00:00 17,0 12,6 - - 4 2 WSW 1016,5 0 0,0
24.09.2017 14:00:00 16,3 12,0 - - 4 2 W 1016,7 0 0,0
24.09.2017 13:00:00 16,0 11,7 - - 4 2 S 1016,7 0 0,0
24.09.2017 12:00:00 16,1 11,9 - - 5 3 SW 1016,8 0 0,0
24.09.2017 11:00:00 15,0 11,2 - - 9 5 WSW 1017,1 0 0,0
24.09.2017 10:00:00 14,2 10,8 14,0 14,2 4 2 WNW 1017,1 0 0,0
24.09.2017 09:00:00 12,6 10,6 - - 2 1 SE 1017,1 0 0,0
24.09.2017 08:00:00 10,7 10,0 - - 4 2 ESE 1016,8 0 0,0
24.09.2017 07:00:00 10,2 8,8 - - 2 1 E 1016,9 0 0,0
24.09.2017 06:00:00 10,2 8,8 - - 4 2 ESE 1016,6 0 0,0
24.09.2017 05:00:00 10,6 8,6 - - 4 2 NNE 1016,8 0 0,0
24.09.2017 04:00:00 11,6 8,5 - - 5 3 NE 1016,9 0 0,0
24.09.2017 03:00:00 10,5 8,1 - - 5 3 E 1016,9 0 0,0
24.09.2017 02:00:00 10,5 7,6 - - 5 3 NNE 1017,3 0 0,0
24.09.2017 01:00:00 11,5 7,3 - - 4 2 NE 1017,5 - 0,0
24.09.2017 00:00:00 12,0 7,9 - - 2 1 WNW 1017,7 0 0,0
23.09.2017 23:00:00 12,5 7,7 - - 2 1 NE 1017,6 0 0,0
23.09.2017 22:00:00 14,2 7,7 - - 5 3 WNW 1017,8 0 0,0
23.09.2017 21:00:00 14,6 8,3 - - 9 5 WSW 1017,8 0 0,0
23.09.2017 20:00:00 14,9 9,3 - - 8 4 S 1017,4 0 0,0
23.09.2017 19:00:00 14,6 10,8 - - 5 3 N 1017,0 0 0,0
23.09.2017 18:00:00 16,0 10,4 - - 4 2 WNW 1017,0 0 0,0
23.09.2017 17:00:00 17,0 11,5 - - 8 4 S 1017,1 12 0,0
23.09.2017 16:00:00 17,1 12,2 - - 13 7 SSE 1017,3 60 0,0
23.09.2017 15:00:00 17,8 13,4 - - 9 5 SSE 1017,5 30 0,0
23.09.2017 14:00:00 16,7 12,8 - - 8 4 SSW 1018,1 0 0,0
23.09.2017 13:00:00 16,6 12,7 - - 9 5 S 1018,3 6 0,0
23.09.2017 12:00:00 15,5 12,9 - - 9 5 SW 1018,6 0 0,0
23.09.2017 11:00:00 15,5 12,6 - - 13 7 SW 1018,4 18 0,0
23.09.2017 10:00:00 15,6 12,3 14,0 14,2 8 4 S 1018,1 0 0,0
23.09.2017 09:00:00 14,5 12,1 - - 9 5 S 1018,2 0 0,0
23.09.2017 08:00:00 13,7 12,3 - - 8 4 SSE 1018,0 0 0,0
23.09.2017 07:00:00 12,7 12,5 - - 5 3 SW 1017,6 0 0,0
23.09.2017 06:00:00 9,6 9,4 - - 8 4 E 1017,9 0 0,0
23.09.2017 05:00:00 9,4 9,2 - - 5 3 WSW 1017,9 0 0,0
23.09.2017 04:00:00 8,8 8,7 - - 4 2 ENE 1018,2 0 0,0
23.09.2017 03:00:00 8,1 7,7 - - 4 2 ENE 1018,0 0 0,0
23.09.2017 02:00:00 9,3 8,8 - - 2 1 ENE 1018,4 0 0,0
23.09.2017 01:00:00 10,4 9,6 - - 2 1 ESE 1018,0 - 0,0
23.09.2017 00:00:00 11,7 10,3 - - 2 1 S 1017,9 0 0,0
22.09.2017 23:00:00 13,4 11,8 - - 4 2 SSW 1017,5 0 0,0
22.09.2017 22:00:00 13,8 12,2 - - 8 4 WSW 1017,2 0 0,0
22.09.2017 21:00:00 14,3 12,5 - - 15 8 WSW 1016,9 0 0,2
22.09.2017 20:00:00 14,1 12,9 - - 9 5 SW 1016,1 0 0,0
22.09.2017 19:00:00 13,9 12,9 - - 5 3 WSW 1015,6 0 0,2
22.09.2017 18:00:00 13,8 12,4 - - 13 7 SW 1015,7 0 0,6
22.09.2017 17:00:00 14,4 11,5 - - 21 11 SW 1015,8 0 0,0
22.09.2017 16:00:00 14,0 11,5 - - 15 8 S 1016,1 0 0,4
22.09.2017 15:00:00 13,8 11,0 - - 11 6 SSW 1016,2 0 0,2
22.09.2017 14:00:00 13,3 10,5 - - 11 6 SW 1016,6 0 0,4
22.09.2017 13:00:00 13,3 9,3 - - 16 9 SW 1016,8 0 0,0
22.09.2017 12:00:00 14,2 9,1 - - 15 8 SSW 1016,8 12 0,0
22.09.2017 11:00:00 12,3 8,9 - - 11 6 SSW 1017,2 0 0,0
22.09.2017 10:00:00 11,9 9,0 14,2 14,2 8 4 SSE 1017,8 6 0,0
22.09.2017 09:00:00 10,4 9,4 - - 11 6 S 1018,1 18 0,0
22.09.2017 08:00:00 5,3 5,2 - - 4 2 SSW 1018,4 0 0,0
22.09.2017 07:00:00 3,7 3,6 - - 2 1 ENE 1018,4 0 0,0
22.09.2017 06:00:00 3,5 3,3 - - 2 1 ENE 1018,6 0 0,2
22.09.2017 05:00:00 4,7 4,5 - - 2 1 NW 1018,9 0 0,0
22.09.2017 04:00:00 5,0 4,9 - - 2 1 E 1018,8 0 0,0
22.09.2017 03:00:00 6,2 6,0 - - 0 0 N 1018,8 0 0,0
22.09.2017 02:00:00 5,8 5,7 - - 2 1 NNW 1019,1 0 0,0
22.09.2017 01:00:00 6,4 6,2 - - 0 0 N 1018,9 - 0,0
22.09.2017 00:00:00 6,1 6,0 - - 2 1 ENE 1018,9 0 0,0
21.09.2017 23:00:00 5,9 5,8 - - 4 2 ENE 1018,6 0 0,0
21.09.2017 22:00:00 6,2 5,6 - - 2 1 E 1018,3 0 0,0
21.09.2017 21:00:00 6,9 5,8 - - 2 1 ENE 1017,8 0 0,0
21.09.2017 20:00:00 8,9 6,9 - - 4 2 WSW 1017,3 0 0,0
21.09.2017 19:00:00 11,2 6,4 - - 9 5 W 1016,4 24 0,0
21.09.2017 18:00:00 13,0 6,7 - - 13 7 W 1015,6 54 0,0
21.09.2017 17:00:00 13,8 7,0 - - 15 8 WSW 1014,8 42 0,0
21.09.2017 16:00:00 14,3 7,9 - - 11 6 W 1014,3 18 0,0
21.09.2017 15:00:00 13,8 8,3 - - 13 7 WSW 1013,6 6 0,0
21.09.2017 14:00:00 13,9 9,5 - - 11 6 WSW 1013,0 18 0,0
21.09.2017 13:00:00 14,0 9,7 - - 11 6 W 1012,5 6 0,0
21.09.2017 12:00:00 13,6 11,4 - - 2 1 NNE 1011,9 0 0,0
21.09.2017 11:00:00 12,7 10,7 - - 2 1 N 1011,3 0 0,0
21.09.2017 10:00:00 12,9 11,5 14,2 14,2 13 7 WSW 1010,6 0 0,6
21.09.2017 09:00:00 13,8 12,9 - - 11 6 SW 1009,4 0 0,8
21.09.2017 08:00:00 15,2 13,3 - - 9 5 SSW 1008,2 0 1,2
21.09.2017 07:00:00 14,8 13,2 - - 8 4 SSW 1008,1 0 0,8
21.09.2017 06:00:00 15,0 13,4 - - 5 3 SW 1008,0 0 2,2
21.09.2017 05:00:00 15,7 13,2 - - 9 5 S 1008,1 0 0,2
21.09.2017 04:00:00 15,0 12,7 - - 11 6 SSE 1008,7 0 0,0
21.09.2017 03:00:00 14,8 12,7 - - 9 5 SSE 1009,7 0 0,0
21.09.2017 02:00:00 14,9 12,6 - - 4 2 NE 1010,2 0 0,0
21.09.2017 01:00:00 15,1 12,8 - - 11 6 S 1010,5 - 0,0
21.09.2017 00:00:00 15,4 12,7 - - 15 8 S 1010,5 0 0,0
20.09.2017 23:00:00 15,6 12,6 - - 11 6 WSW 1010,8 0 0,0
20.09.2017 22:00:00 15,7 13,0 - - 13 7 SSW 1011,2 0 0,0
20.09.2017 21:00:00 15,9 13,0 - - 18 10 SW 1011,2 0 0,0
20.09.2017 20:00:00 15,6 13,2 - - 13 7 WSW 1011,6 0 0,0
20.09.2017 19:00:00 15,5 13,4 - - 13 7 SSW 1011,6 0 0,4
20.09.2017 18:00:00 15,5 13,6 - - 13 7 SSW 1011,9 0 0,4
20.09.2017 17:00:00 15,8 13,2 - - 16 9 SW 1012,0 0 0,0
20.09.2017 16:00:00 15,6 13,3 - - 13 7 SSW 1012,8 0 0,2
20.09.2017 15:00:00 15,4 12,5 - - 16 9 SW 1013,7 0 0,2
20.09.2017 14:00:00 15,8 13,2 - - 13 7 SW 1013,9 0 0,0
20.09.2017 13:00:00 17,0 11,9 - - 15 8 SSW 1014,0 24 0,0
20.09.2017 12:00:00 18,1 12,3 - - 15 8 SW 1014,3 60 0,0
20.09.2017 11:00:00 16,4 11,4 - - 16 9 WSW 1014,8 30 0,0
20.09.2017 10:00:00 14,7 11,3 14,0 14,2 11 6 WSW 1015,6 0 0,0
20.09.2017 09:00:00 14,3 11,4 - - 11 6 W 1015,9 0 0,0
20.09.2017 08:00:00 13,6 11,2 - - 11 6 WSW 1015,8 0 0,0
20.09.2017 07:00:00 13,4 11,5 - - 11 6 WSW 1016,4 0 0,2
20.09.2017 06:00:00 13,5 11,4 - - 11 6 WSW 1016,7 0 0,0
20.09.2017 05:00:00 13,6 11,2 - - 21 11 WSW 1016,8 0 0,0
20.09.2017 04:00:00 13,4 11,3 - - 16 9 WSW 1017,4 0 0,0
20.09.2017 03:00:00 12,9 11,0 - - 16 9 WSW 1017,9 0 0,0
20.09.2017 02:00:00 12,3 10,3 - - 15 8 WSW 1018,5 0 0,0
20.09.2017 01:00:00 12,4 9,8 - - 11 6 WSW 1018,6 - 0,0
20.09.2017 00:00:00 11,4 11,2 - - 5 3 SW 1019,3 0 0,0
19.09.2017 23:00:00 9,4 9,2 - - 2 1 ENE 1019,8 0 0,0
19.09.2017 22:00:00 9,1 8,8 - - 2 1 NE 1020,2 0 0,0
19.09.2017 21:00:00 9,3 8,3 - - 4 2 W 1020,6 0 0,0
19.09.2017 20:00:00 11,4 8,7 - - 2 1 W 1020,5 0 0,0
19.09.2017 19:00:00 13,2 8,5 - - 5 3 W 1020,2 36 0,0
19.09.2017 18:00:00 14,4 9,3 - - 15 8 WSW 1020,2 36 0,0
19.09.2017 17:00:00 15,2 8,4 - - 16 9 SW 1020,2 42 0,0
19.09.2017 16:00:00 15,3 8,0 - - 11 6 WSW 1020,5 24 0,0
19.09.2017 15:00:00 15,5 6,4 - - 13 7 WSW 1020,9 30 0,0
19.09.2017 14:00:00 15,8 7,6 - - 9 5 WSW 1021,2 18 0,0
19.09.2017 13:00:00 15,3 8,9 - - 9 5 WSW 1021,2 24 0,0
19.09.2017 12:00:00 15,3 7,8 - - 13 7 SW 1021,1 60 0,0
19.09.2017 11:00:00 13,0 9,1 - - 2 1 SW 1021,2 60 0,0
19.09.2017 10:00:00 8,1 8,0 14,0 14,4 2 1 ESE 1021,9 24 0,0

tt = temperature
td = dewpoint
tt -20cm = temperature -20cm
tt -100cm = temperature -100cm
ff = wind speed
dd = wind direction
ppp = reduced air pressure
sd = sunshine duration
rr = precipitation

Next stations